Time;durP1;ratioP1;P1;durP2;ratioP2;P2;SDS_P1;SDS_P2;PMS_P1;PMS_P2;Temp;Humidity;BMP_temperature;BMP_pressure;BME280_temperature;BME280_humidity;BME280_pressure;Samples;Min_cycle;Max_cycle;Signal;HPM_P1;HPM_P2
2021/09/21 00:00:26;;;;;;;5.40;3.05;;;;;;;12.84;99.54;101969.34;4950491;28;20951;-65
2021/09/21 00:02:51;;;;;;;7.10;3.17;;;;;;;12.91;99.39;101967.66;4948380;28;20424;-65
2021/09/21 00:05:17;;;;;;;7.00;3.33;;;;;;;12.97;99.17;101962.84;4952401;28;20479;-65
2021/09/21 00:07:42;;;;;;;5.50;2.78;;;;;;;12.85;98.88;101970.94;4952930;28;20031;-65
2021/09/21 00:10:09;;;;;;;6.30;3.25;;;;;;;12.91;99.13;101973.06;4945522;28;20044;-65
2021/09/21 00:12:35;;;;;;;5.85;3.03;;;;;;;12.93;99.08;101968.13;4940806;28;20047;-65
2021/09/21 00:15:01;;;;;;;4.35;2.42;;;;;;;12.78;98.75;101979.59;4941906;28;20046;-64
2021/09/21 00:17:26;;;;;;;5.43;2.40;;;;;;;12.86;98.63;101973.31;4948616;28;20037;-65
2021/09/21 00:19:52;;;;;;;7.07;3.17;;;;;;;12.79;98.08;101966.88;4953226;28;20023;-65
2021/09/21 00:22:17;;;;;;;5.07;2.83;;;;;;;12.80;98.02;101966.53;4941144;28;20039;-65
2021/09/21 00:24:42;;;;;;;5.97;3.15;;;;;;;12.73;98.19;101979.84;4949137;28;20559;-65
2021/09/21 00:27:08;;;;;;;9.05;3.22;;;;;;;12.65;98.07;101968.00;4945291;28;20557;-65
2021/09/21 00:29:34;;;;;;;7.93;3.72;;;;;;;12.58;98.19;101972.38;4937488;28;20038;-65
2021/09/21 00:32:00;;;;;;;5.43;2.83;;;;;;;12.61;98.05;101986.00;4940329;28;20032;-64
2021/09/21 00:34:39;;;;;;;5.60;2.97;;;;;;;12.57;97.75;101971.59;4950115;28;20479;-64
2021/09/21 00:37:12;;;;;;;5.95;3.25;;;;;;;12.54;97.61;101977.66;4940078;28;20039;-64
2021/09/21 00:39:39;;;;;;;6.50;2.70;;;;;;;12.50;97.74;101974.03;4940704;28;20048;-65
2021/09/21 00:42:05;;;;;;;6.55;2.90;;;;;;;12.44;97.52;101977.31;4950051;28;20035;-65
2021/09/21 00:44:31;;;;;;;6.07;2.65;;;;;;;12.40;97.81;101966.38;4951605;28;20393;-65
2021/09/21 00:46:58;;;;;;;4.03;2.55;;;;;;;12.36;97.68;101964.66;4949626;28;20039;-65
2021/09/21 00:49:23;;;;;;;7.05;2.97;;;;;;;12.27;97.52;101970.16;4946822;28;20062;-65
2021/09/21 00:51:49;;;;;;;8.70;3.28;;;;;;;12.27;97.74;101970.16;4948454;28;20062;-65
2021/09/21 00:54:14;;;;;;;5.30;2.55;;;;;;;12.33;97.41;101963.41;4950118;28;20035;-65
2021/09/21 00:56:41;;;;;;;6.35;2.90;;;;;;;12.19;97.60;101962.94;4951896;28;20178;-65
2021/09/21 00:59:07;;;;;;;7.60;3.38;;;;;;;12.09;97.44;101966.06;4949402;28;20039;-65
2021/09/21 01:01:32;;;;;;;5.03;2.47;;;;;;;12.05;97.59;101965.13;4948367;28;20046;-65
2021/09/21 01:03:59;;;;;;;7.63;3.30;;;;;;;12.14;97.29;101962.34;4950280;28;20042;-65
2021/09/21 01:06:25;;;;;;;7.38;3.22;;;;;;;12.07;97.35;101962.09;4951574;28;20042;-65
2021/09/21 01:08:50;;;;;;;4.88;2.70;;;;;;;12.02;97.65;101959.63;4945468;28;20399;-65
2021/09/21 01:11:15;;;;;;;7.03;3.42;;;;;;;11.99;97.85;101960.25;4945998;29;20403;-65
2021/09/21 01:13:42;;;;;;;6.70;3.33;;;;;;;12.02;97.73;101957.69;4936710;28;20065;-65
2021/09/21 01:16:08;;;;;;;5.72;2.85;;;;;;;12.02;98.04;101954.22;4952948;28;20042;-64
2021/09/21 01:18:34;;;;;;;5.85;3.00;;;;;;;12.04;97.42;101952.75;4947139;28;20415;-65
2021/09/21 01:21:03;;;;;;;5.65;3.05;;;;;;;12.01;97.67;101958.81;4951192;28;20035;-64
2021/09/21 01:23:30;;;;;;;5.00;2.72;;;;;;;11.91;98.11;101961.13;4949594;28;20043;-64
2021/09/21 01:25:56;;;;;;;4.35;2.58;;;;;;;11.90;98.51;101946.88;4949445;28;20428;-65
2021/09/21 01:28:21;;;;;;;5.55;3.25;;;;;;;12.04;98.15;101951.97;4945769;28;20060;-65
2021/09/21 01:30:47;;;;;;;8.43;3.05;;;;;;;11.94;98.93;101963.97;4963161;28;20118;-65
2021/09/21 01:33:17;;;;;;;6.47;2.80;;;;;;;11.98;98.90;101967.56;4951832;28;20070;-65
2021/09/21 01:35:42;;;;;;;7.57;4.72;;;;;;;12.01;99.61;101958.81;4966310;28;20040;-65
2021/09/21 01:38:08;;;;;;;5.75;2.83;;;;;;;12.15;99.45;101961.22;4948432;28;20035;-65
2021/09/21 01:40:34;;;;;;;5.80;3.05;;;;;;;12.18;99.46;101964.06;4943706;28;20079;-65
2021/09/21 01:42:59;;;;;;;4.50;2.75;;;;;;;12.19;99.88;101962.16;4951375;28;20043;-65
2021/09/21 01:45:25;;;;;;;6.60;2.80;;;;;;;12.15;100.00;101947.72;4944438;28;20547;-64
2021/09/21 01:47:51;;;;;;;5.63;2.90;;;;;;;12.17;100.00;101956.28;4950315;28;20030;-65
2021/09/21 01:58:16;;;;;;;5.15;2.85;;;;;;;12.37;100.00;101958.94;4954462;28;20401;-65
2021/09/21 02:00:44;;;;;;;8.73;3.45;;;;;;;12.32;100.00;101956.44;4950285;28;20059;-65
2021/09/21 02:03:10;;;;;;;5.88;2.83;;;;;;;12.32;100.00;101944.84;4969482;28;20047;-65
2021/09/21 02:05:35;;;;;;;5.85;3.22;;;;;;;12.27;100.00;101945.06;4953961;28;20039;-64
2021/09/21 02:08:01;;;;;;;4.90;2.92;;;;;;;12.34;100.00;101940.69;4954781;28;20034;-65
2021/09/21 02:10:26;;;;;;;6.32;3.03;;;;;;;12.43;100.00;101929.78;4953313;28;20035;-65
2021/09/21 02:12:52;;;;;;;8.07;3.25;;;;;;;12.38;100.00;101928.09;4954621;28;20098;-65
2021/09/21 02:15:20;;;;;;;6.55;3.22;;;;;;;12.50;100.00;101930.81;4949342;28;20119;-64
2021/09/21 02:17:45;;;;;;;6.38;3.40;;;;;;;12.54;100.00;101942.50;4943789;28;20467;-65
2021/09/21 02:20:11;;;;;;;6.75;3.13;;;;;;;12.44;100.00;101942.97;4952902;28;20114;-64
2021/09/21 02:22:37;;;;;;;4.95;3.10;;;;;;;12.42;100.00;101939.03;4940113;28;20050;-65
2021/09/21 02:25:02;;;;;;;5.40;2.90;;;;;;;12.41;100.00;101927.41;4951028;28;20043;-64
2021/09/21 02:27:28;;;;;;;8.45;2.97;;;;;;;12.45;100.00;101930.22;4965324;28;20058;-65
2021/09/21 02:29:53;;;;;;;6.90;3.33;;;;;;;12.43;100.00;101938.69;4950705;28;20137;-65
2021/09/21 02:32:19;;;;;;;6.00;3.22;;;;;;;12.52;100.00;101941.28;4949526;28;20027;-65
2021/09/21 02:34:45;;;;;;;7.05;3.25;;;;;;;12.45;100.00;101933.72;4951662;28;20031;-65
2021/09/21 02:37:15;;;;;;;8.90;3.65;;;;;;;12.39;100.00;101926.97;4954594;28;20054;-65
2021/09/21 02:40:01;;;;;;;5.95;2.63;;;;;;;12.33;100.00;101936.41;4949994;28;20420;-65
2021/09/21 02:42:26;;;;;;;7.97;3.03;;;;;;;12.41;100.00;101929.31;4956096;28;20035;-65
2021/09/21 02:44:52;;;;;;;5.97;2.90;;;;;;;12.44;100.00;101934.88;4953713;28;20700;-65
2021/09/21 02:47:17;;;;;;;6.40;3.42;;;;;;;12.48;100.00;101938.47;4951788;28;20122;-65
2021/09/21 02:49:43;;;;;;;5.93;2.80;;;;;;;12.47;100.00;101947.69;4944507;28;20094;-65
2021/09/21 02:52:08;;;;;;;6.90;3.25;;;;;;;12.55;100.00;101949.50;4948878;28;20510;-65
2021/09/21 02:54:34;;;;;;;5.95;2.95;;;;;;;12.59;100.00;101953.13;4948379;28;20071;-65
2021/09/21 02:56:59;;;;;;;6.97;3.15;;;;;;;12.53;100.00;101959.06;4932901;28;20046;-65
2021/09/21 02:59:25;;;;;;;6.30;3.03;;;;;;;12.52;100.00;101968.31;4958185;28;20039;-65
2021/09/21 03:01:50;;;;;;;8.73;3.17;;;;;;;12.58;100.00;101972.38;4942041;28;20046;-65
2021/09/21 03:04:26;;;;;;;6.22;3.30;;;;;;;12.62;100.00;101986.78;4958562;28;20119;-65
2021/09/21 03:06:59;;;;;;;7.93;2.97;;;;;;;12.58;100.00;101991.31;4945935;28;20460;-65
2021/09/21 03:12:13;;;;;;;;;;;;;;;12.51;100.00;102004.56;4957847;28;20045;-64
2021/09/21 03:17:27;;;;;;;5.95;2.95;;;;;;;12.52;100.00;102004.22;4941925;28;20150;-65
2021/09/21 03:19:57;;;;;;;5.45;2.92;;;;;;;12.60;100.00;101984.41;4948875;28;20390;-65
2021/09/21 03:22:22;;;;;;;10.00;3.22;;;;;;;12.66;100.00;101983.09;4956439;28;20114;-65
2021/09/21 03:24:49;;;;;;;7.75;2.88;;;;;;;12.68;100.00;101982.75;4954379;28;20526;-65
2021/09/21 03:27:15;;;;;;;6.63;2.90;;;;;;;12.69;100.00;101985.13;4951617;28;20041;-65
2021/09/21 03:29:40;;;;;;;6.35;3.10;;;;;;;12.63;100.00;101975.66;4953820;28;20039;-65
2021/09/21 03:32:06;;;;;;;8.07;3.33;;;;;;;12.62;100.00;101971.34;4950402;28;20039;-65
2021/09/21 03:34:32;;;;;;;8.63;3.38;;;;;;;12.62;100.00;101975.97;4949354;28;20042;-65
2021/09/21 03:36:58;;;;;;;7.28;3.80;;;;;;;12.50;100.00;101970.56;4950633;28;20126;-65
2021/09/21 03:39:23;;;;;;;6.88;3.13;;;;;;;12.52;100.00;101976.44;4947197;28;20166;-65
2021/09/21 03:41:49;;;;;;;6.65;3.42;;;;;;;12.58;100.00;101983.97;4946686;28;20035;-65
2021/09/21 03:44:15;;;;;;;8.00;3.55;;;;;;;12.69;100.00;101982.44;4949464;28;20123;-65
2021/09/21 03:46:40;;;;;;;7.05;3.42;;;;;;;12.69;100.00;101968.91;4950408;28;20025;-65
2021/09/21 03:49:06;;;;;;;5.78;3.28;;;;;;;12.65;100.00;101957.19;4950343;28;20133;-65
2021/09/21 03:51:31;;;;;;;6.47;3.47;;;;;;;12.69;100.00;101962.72;4947868;28;20788;-65
2021/09/21 03:53:57;;;;;;;6.28;3.15;;;;;;;12.71;100.00;101976.69;4943929;29;20039;-65
2021/09/21 03:56:22;;;;;;;7.15;4.20;;;;;;;12.82;100.00;101987.81;4946305;28;20090;-65
2021/09/21 03:58:48;;;;;;;5.40;2.75;;;;;;;12.67;100.00;101984.66;4945057;28;20038;-65
2021/09/21 04:01:14;;;;;;;6.60;3.20;;;;;;;12.74;100.00;101986.03;4952092;28;20107;-65
2021/09/21 04:03:39;;;;;;;7.43;3.42;;;;;;;12.74;100.00;101986.03;4941247;28;20027;-64
2021/09/21 04:06:05;;;;;;;6.63;3.58;;;;;;;12.75;100.00;101987.59;4950320;28;20043;-65
2021/09/21 04:08:30;;;;;;;5.47;3.00;;;;;;;12.76;100.00;101989.97;4940449;28;20019;-64
2021/09/21 04:10:56;;;;;;;7.00;3.42;;;;;;;12.78;100.00;101992.31;4945920;28;20043;-65
2021/09/21 04:13:21;;;;;;;5.97;3.03;;;;;;;12.79;100.00;101989.31;4948051;28;20031;-65
2021/09/21 04:15:47;;;;;;;7.55;3.25;;;;;;;12.76;100.00;101994.56;4939530;28;20481;-65
2021/09/21 04:18:12;;;;;;;6.32;2.85;;;;;;;12.81;100.00;101991.66;4947619;28;20044;-65
2021/09/21 04:20:37;;;;;;;5.93;3.08;;;;;;;12.78;100.00;101998.53;4950381;28;20023;-65
2021/09/21 04:23:03;;;;;;;9.02;3.40;;;;;;;12.73;100.00;102000.66;4935804;28;20067;-65
2021/09/21 04:25:30;;;;;;;4.43;2.83;;;;;;;12.82;100.00;101987.81;4945603;28;20039;-65
2021/09/21 04:27:59;;;;;;;6.55;3.47;;;;;;;12.86;100.00;101994.13;4948774;28;20067;-65
2021/09/21 04:30:25;;;;;;;6.50;3.50;;;;;;;12.80;100.00;101993.56;4951745;28;20118;-65
2021/09/21 04:32:52;;;;;;;7.97;3.42;;;;;;;12.84;100.00;101990.97;4946672;28;20467;-65
2021/09/21 04:35:18;;;;;;;6.70;3.30;;;;;;;12.76;100.00;101983.75;4948363;28;20031;-65
2021/09/21 04:37:43;;;;;;;5.72;3.03;;;;;;;12.76;100.00;101989.16;4964645;28;20050;-65
2021/09/21 04:40:09;;;;;;;7.00;3.45;;;;;;;12.72;100.00;101993.69;4957205;28;20702;-65
2021/09/21 04:42:35;;;;;;;8.63;3.42;;;;;;;12.69;100.00;101979.72;4958097;28;20474;-65
2021/09/21 04:45:01;;;;;;;7.53;3.22;;;;;;;12.73;100.00;101977.13;4948975;28;20039;-65
2021/09/21 04:47:27;;;;;;;6.45;3.15;;;;;;;12.64;100.00;101976.44;4933445;28;20036;-65
2021/09/21 04:49:52;;;;;;;5.30;2.97;;;;;;;12.62;100.00;101974.06;4943324;28;20028;-65
2021/09/21 04:52:18;;;;;;;6.28;3.20;;;;;;;12.62;100.00;101984.88;4941533;28;20677;-65
2021/09/21 04:54:43;;;;;;;5.68;3.33;;;;;;;12.65;100.00;101988.81;4943451;28;20036;-65
2021/09/21 04:57:10;;;;;;;6.78;3.08;;;;;;;12.72;100.00;101993.69;4944418;28;20047;-65
2021/09/21 04:59:35;;;;;;;5.78;3.13;;;;;;;12.70;100.00;101994.00;4946951;28;20043;-65
2021/09/21 05:02:01;;;;;;;5.80;2.97;;;;;;;12.72;100.00;102007.22;4942391;28;20066;-65
2021/09/21 05:04:27;;;;;;;6.28;3.05;;;;;;;12.69;100.00;101998.66;4950714;28;20300;-65
2021/09/21 05:06:52;;;;;;;5.53;2.85;;;;;;;12.59;100.00;102001.78;4946223;28;20035;-65
2021/09/21 05:09:18;;;;;;;6.85;3.45;;;;;;;12.69;100.00;101974.31;4948441;28;20038;-65
2021/09/21 05:11:46;;;;;;;5.78;3.17;;;;;;;12.73;100.00;101996.06;4946819;28;20420;-65
2021/09/21 05:14:12;;;;;;;7.15;3.25;;;;;;;12.73;100.00;102006.06;4943192;28;20039;-65
2021/09/21 05:19:15;;;;;;;5.07;2.58;;;;;;;12.83;100.00;102021.84;4995522;28;20046;-65
2021/09/21 05:21:42;;;;;;;7.20;3.45;;;;;;;12.88;100.00;102016.22;4997982;28;20055;-66
2021/09/21 05:24:10;;;;;;;6.47;3.08;;;;;;;12.86;100.00;102032.00;4987423;28;20037;-66
2021/09/21 05:26:36;;;;;;;6.03;3.03;;;;;;;12.86;100.00;102021.19;4983510;28;20113;-66
2021/09/21 05:29:02;;;;;;;5.88;2.95;;;;;;;12.90;100.00;102012.06;4978448;28;21970;-65
2021/09/21 05:31:28;;;;;;;7.07;3.50;;;;;;;12.95;100.00;102013.78;4987439;28;20065;-65
2021/09/21 05:33:53;;;;;;;5.75;3.03;;;;;;;12.93;100.00;102005.22;5003942;28;20498;-65
2021/09/21 05:36:19;;;;;;;6.50;3.30;;;;;;;12.93;100.00;102000.56;4994990;28;20181;-65
2021/09/21 05:38:44;;;;;;;5.88;3.45;;;;;;;12.97;100.00;102006.88;4997936;28;20041;-65
2021/09/21 05:41:10;;;;;;;8.70;3.67;;;;;;;12.97;100.00;102015.00;4996000;28;20048;-66
2021/09/21 05:43:35;;;;;;;8.55;3.72;;;;;;;12.92;100.00;102017.94;5002562;28;20684;-65
2021/09/21 05:46:01;;;;;;;8.98;3.47;;;;;;;12.98;100.00;102018.50;4990617;28;20097;-65
2021/09/21 05:48:26;;;;;;;7.60;3.38;;;;;;;12.98;100.00;102019.28;5005119;28;20061;-65
2021/09/21 05:50:52;;;;;;;5.93;3.17;;;;;;;13.02;100.00;102035.63;5004536;28;20033;-65
2021/09/21 05:53:17;;;;;;;7.15;3.70;;;;;;;13.09;100.00;102030.47;4999352;28;20038;-66
2021/09/21 05:55:43;;;;;;;8.32;3.50;;;;;;;13.09;100.00;102033.97;5004618;28;20446;-66
2021/09/21 05:58:10;;;;;;;8.00;4.10;;;;;;;13.03;100.00;102026.38;5001846;28;20026;-65
2021/09/21 06:00:36;;;;;;;7.80;3.72;;;;;;;13.07;100.00;102043.53;5003851;28;20041;-65
2021/09/21 06:03:02;;;;;;;9.50;4.00;;;;;;;13.09;100.00;102033.16;4995750;28;20044;-65
2021/09/21 06:05:27;;;;;;;8.60;3.35;;;;;;;13.09;100.00;102030.47;5008331;28;20402;-65
2021/09/21 06:07:54;;;;;;;7.97;4.00;;;;;;;13.10;100.00;102032.84;5003671;28;20029;-65
2021/09/21 06:10:22;;;;;;;6.35;3.60;;;;;;;13.12;100.00;102033.31;5007015;28;20584;-65
2021/09/21 06:12:48;;;;;;;5.75;3.47;;;;;;;13.12;100.00;102035.22;5005588;28;20026;-65
2021/09/21 06:15:14;;;;;;;12.35;3.92;;;;;;;13.17;100.00;102043.09;5003075;28;20032;-65
2021/09/21 06:17:41;;;;;;;8.52;3.70;;;;;;;13.19;100.00;102040.84;5007379;28;20034;-65
2021/09/21 06:20:09;;;;;;;12.07;4.57;;;;;;;13.18;100.00;102036.56;4999139;28;20033;-65
2021/09/21 06:22:37;;;;;;;6.93;3.45;;;;;;;13.24;100.00;102046.81;4998977;28;20038;-65
2021/09/21 06:25:04;;;;;;;10.77;4.75;;;;;;;13.33;100.00;102041.31;5003174;28;20595;-65
2021/09/21 06:27:29;;;;;;;8.85;4.05;;;;;;;13.33;100.00;102046.72;5017714;28;20234;-65
2021/09/21 06:29:55;;;;;;;8.88;3.78;;;;;;;13.36;100.00;102040.63;5007784;28;20692;-65
2021/09/21 06:32:20;;;;;;;9.77;4.53;;;;;;;13.41;100.00;102048.53;5006619;28;20470;-65
2021/09/21 06:34:46;;;;;;;7.20;3.80;;;;;;;13.35;100.00;102045.25;5009516;28;20368;-65
2021/09/21 06:37:11;;;;;;;8.38;3.85;;;;;;;13.47;100.00;102050.66;5006708;28;20076;-65
2021/09/21 06:39:37;;;;;;;10.13;4.03;;;;;;;13.50;100.00;102060.00;5011324;28;20618;-65
2021/09/21 06:42:03;;;;;;;8.88;3.97;;;;;;;13.51;100.00;102069.72;5005016;28;20109;-65
2021/09/21 06:44:28;;;;;;;5.75;3.35;;;;;;;13.48;100.00;102062.25;5011408;28;20080;-65
2021/09/21 06:46:53;;;;;;;7.95;4.32;;;;;;;13.49;100.00;102069.28;5009057;28;20049;-65
2021/09/21 06:49:19;;;;;;;10.15;3.60;;;;;;;13.55;100.00;102070.59;5007553;28;20050;-65
2021/09/21 06:51:44;;;;;;;10.50;3.97;;;;;;;13.57;100.00;102074.56;5008773;28;20030;-65
2021/09/21 06:54:10;;;;;;;5.88;3.30;;;;;;;13.56;100.00;102069.50;5006226;28;20030;-65
2021/09/21 06:56:35;;;;;;;7.15;3.50;;;;;;;13.55;100.00;102065.97;5011780;28;20040;-65
2021/09/21 06:59:01;;;;;;;9.02;3.88;;;;;;;13.61;100.00;102069.25;5003307;28;20112;-65
2021/09/21 07:01:28;;;;;;;10.98;3.85;;;;;;;13.62;100.00;102075.44;5010901;28;20034;-65
2021/09/21 07:03:54;;;;;;;7.35;3.47;;;;;;;13.69;100.00;102078.38;5006209;28;21604;-65
2021/09/21 07:06:19;;;;;;;7.60;3.72;;;;;;;13.76;100.00;102082.09;5004951;28;20038;-65
2021/09/21 07:08:45;;;;;;;8.43;3.63;;;;;;;13.80;100.00;102077.56;5011911;28;20037;-65
2021/09/21 07:11:10;;;;;;;6.13;3.15;;;;;;;13.91;100.00;102070.56;5005593;28;20440;-65
2021/09/21 07:13:36;;;;;;;6.40;3.40;;;;;;;14.02;100.00;102076.28;5011274;28;20042;-66
2021/09/21 07:16:01;;;;;;;7.65;3.00;;;;;;;14.08;100.00;102072.22;5005238;28;20128;-65
2021/09/21 07:18:27;;;;;;;7.15;3.50;;;;;;;14.12;100.00;102076.59;5004011;28;20036;-65
2021/09/21 07:20:52;;;;;;;5.18;2.92;;;;;;;14.21;99.47;102074.53;5004060;28;20033;-65
2021/09/21 07:23:18;;;;;;;6.10;3.20;;;;;;;14.26;98.93;102089.78;4999152;28;20845;-65
2021/09/21 07:25:43;;;;;;;7.53;3.15;;;;;;;14.24;97.76;102084.72;5011250;28;20037;-65
2021/09/21 07:28:08;;;;;;;6.93;3.30;;;;;;;14.20;97.33;102094.66;5008385;28;20430;-65
2021/09/21 07:30:35;;;;;;;5.28;2.72;;;;;;;14.22;97.24;102088.88;5006684;28;20069;-65
2021/09/21 07:33:01;;;;;;;10.30;3.30;;;;;;;14.22;97.25;102097.81;5007429;28;20466;-65
2021/09/21 07:35:26;;;;;;;6.80;3.17;;;;;;;14.14;97.46;102093.31;5011060;28;20037;-65
2021/09/21 07:37:53;;;;;;;4.80;3.05;;;;;;;14.20;97.01;102102.78;5003258;28;20037;-65
2021/09/21 07:40:20;;;;;;;9.80;2.85;;;;;;;14.21;95.93;102108.97;5007071;28;20033;-65
2021/09/21 07:42:48;;;;;;;6.22;3.08;;;;;;;14.13;97.08;102107.22;5009744;28;20041;-65
2021/09/21 07:45:14;;;;;;;5.68;2.88;;;;;;;14.11;98.21;102121.06;5001806;28;20473;-65
2021/09/21 07:47:40;;;;;;;8.27;2.78;;;;;;;14.10;99.47;102118.72;5007606;28;20045;-65
2021/09/21 07:50:07;;;;;;;7.55;3.20;;;;;;;14.10;99.90;102124.94;5010510;28;20596;-65
2021/09/21 07:52:33;;;;;;;7.50;3.45;;;;;;;14.02;100.00;102117.72;5008471;28;20044;-65
2021/09/21 07:54:59;;;;;;;9.50;3.38;;;;;;;13.89;100.00;102135.13;5004324;28;20029;-66
2021/09/21 07:57:25;;;;;;;5.45;2.78;;;;;;;13.89;100.00;102123.50;5009969;28;20038;-66
2021/09/21 07:59:51;;;;;;;5.63;2.78;;;;;;;13.83;100.00;102124.84;5009435;28;20034;-66
2021/09/21 08:02:17;;;;;;;5.80;3.05;;;;;;;13.80;100.00;102133.66;5003870;28;20487;-66
2021/09/21 08:04:43;;;;;;;7.03;2.70;;;;;;;13.79;100.00;102123.94;5009227;28;20037;-66
2021/09/21 08:07:09;;;;;;;5.75;2.70;;;;;;;13.74;100.00;102129.59;5002741;28;20084;-66
2021/09/21 08:09:36;;;;;;;6.80;2.97;;;;;;;13.78;100.00;102127.78;5009148;28;20045;-66
2021/09/21 08:12:03;;;;;;;5.47;2.90;;;;;;;13.64;100.00;102138.97;5003996;28;20065;-66
2021/09/21 08:14:29;;;;;;;5.75;2.30;;;;;;;13.66;100.00;102136.72;5009354;28;20044;-66
2021/09/21 08:16:55;;;;;;;6.15;2.65;;;;;;;13.57;100.00;102142.22;5005051;28;20046;-66
2021/09/21 08:19:20;;;;;;;4.90;2.35;;;;;;;13.63;100.00;102148.19;5000607;28;20033;-66
2021/09/21 08:21:46;;;;;;;5.28;2.70;;;;;;;13.69;100.00;102140.63;5003811;28;20033;-67
2021/09/21 08:24:11;;;;;;;7.07;2.92;;;;;;;13.67;100.00;102132.88;5005247;28;20046;-66
2021/09/21 08:26:37;;;;;;;6.18;2.63;;;;;;;13.75;100.00;102139.28;5006162;28;20034;-66
2021/09/21 08:29:02;;;;;;;4.78;2.40;;;;;;;13.74;100.00;102126.91;5006275;28;20030;-66
2021/09/21 08:31:28;;;;;;;5.70;2.40;;;;;;;13.81;100.00;102133.31;5002961;28;20121;-67
2021/09/21 08:33:53;;;;;;;6.30;2.60;;;;;;;13.88;100.00;102132.75;5004015;28;20062;-66
2021/09/21 08:36:20;;;;;;;5.45;2.50;;;;;;;13.95;100.00;102131.06;5008684;28;20038;-67
2021/09/21 08:38:45;;;;;;;5.78;2.95;;;;;;;13.92;100.00;102122.78;5002640;28;20104;-66
2021/09/21 08:41:12;;;;;;;3.97;2.38;;;;;;;13.87;100.00;102117.63;5008576;28;20053;-66
2021/09/21 08:43:37;;;;;;;6.07;2.85;;;;;;;13.87;100.00;102115.72;5004216;28;20034;-66
2021/09/21 08:46:04;;;;;;;6.35;3.40;;;;;;;13.85;100.00;102107.13;5007749;28;20065;-66
2021/09/21 08:48:30;;;;;;;13.68;3.38;;;;;;;13.84;100.00;102102.84;5006983;28;20037;-66
2021/09/21 08:50:56;;;;;;;7.38;3.40;;;;;;;13.88;100.00;102109.16;5008694;28;20132;-66
2021/09/21 08:53:22;;;;;;;7.47;3.17;;;;;;;13.96;100.00;102108.25;5006801;28;20040;-67
2021/09/21 08:55:48;;;;;;;5.22;2.58;;;;;;;13.93;100.00;102105.44;5008442;28;20026;-66
2021/09/21 08:58:13;;;;;;;7.18;3.28;;;;;;;14.01;100.00;102108.03;5008806;28;20038;-66
2021/09/21 09:00:39;;;;;;;7.97;3.33;;;;;;;14.02;100.00;102106.88;5006522;28;20045;-66
2021/09/21 09:03:10;;;;;;;7.05;3.38;;;;;;;14.10;100.00;102105.97;5008323;28;20042;-66
2021/09/21 09:05:50;;;;;;;7.30;3.28;;;;;;;14.12;100.00;102105.63;5008134;28;20046;-66
2021/09/21 09:08:30;;;;;;;8.05;3.28;;;;;;;14.11;100.00;102106.75;5007544;28;20044;-66
2021/09/21 09:11:13;;;;;;;10.07;3.30;;;;;;;14.11;100.00;102106.75;5001729;28;20917;-66
2021/09/21 09:13:40;;;;;;;8.75;3.67;;;;;;;14.14;100.00;102101.44;5005371;28;20044;-66
2021/09/21 09:16:12;;;;;;;8.07;3.35;;;;;;;14.16;100.00;102098.38;5000986;28;20085;-66
2021/09/21 09:18:39;;;;;;;9.35;3.42;;;;;;;14.17;100.00;102100.75;4997522;28;20033;-67
2021/09/21 09:21:05;;;;;;;7.32;3.30;;;;;;;14.25;100.00;102101.72;5000471;28;20030;-66
2021/09/21 09:23:31;;;;;;;7.60;3.63;;;;;;;14.31;100.00;102103.91;5000330;28;20492;-67
2021/09/21 09:25:58;;;;;;;7.13;3.58;;;;;;;14.36;100.00;102106.34;5009510;28;20038;-66
2021/09/21 09:28:26;;;;;;;7.32;3.45;;;;;;;14.48;100.00;102119.88;5002853;28;20037;-67
2021/09/21 09:30:53;;;;;;;8.38;3.53;;;;;;;14.48;100.00;102129.91;5001863;28;20026;-66
2021/09/21 09:33:21;;;;;;;7.35;3.28;;;;;;;14.48;100.00;102128.00;5005573;28;20046;-66
2021/09/21 09:35:48;;;;;;;7.47;3.85;;;;;;;14.51;100.00;102126.53;5006232;28;20045;-66
2021/09/21 09:38:17;;;;;;;7.15;3.40;;;;;;;14.45;100.00;102126.00;5000867;28;20490;-66
2021/09/21 09:40:50;;;;;;;6.90;3.45;;;;;;;14.45;100.00;102119.78;5007245;28;20038;-66
2021/09/21 09:43:18;;;;;;;9.95;4.10;;;;;;;14.42;100.00;102125.88;5007415;28;20037;-66
2021/09/21 09:45:46;;;;;;;10.50;3.83;;;;;;;14.41;100.00;102124.31;5003961;28;20033;-66
2021/09/21 09:48:17;;;;;;;12.32;4.40;;;;;;;14.35;100.00;102117.53;5005942;28;20026;-66
2021/09/21 09:50:44;;;;;;;9.80;4.65;;;;;;;14.33;100.00;102115.19;5007910;28;20125;-66
2021/09/21 09:53:13;;;;;;;10.77;4.05;;;;;;;14.31;100.00;102112.03;5002813;28;20042;-67
2021/09/21 09:55:45;;;;;;;8.82;3.88;;;;;;;14.42;100.00;102110.41;5007012;28;20132;-66
2021/09/21 09:58:11;;;;;;;8.98;3.67;;;;;;;14.48;100.00;102102.81;4999920;28;20373;-67
2021/09/21 10:00:37;;;;;;;7.53;4.05;;;;;;;14.52;100.00;102105.63;5003762;28;20038;-66
2021/09/21 10:03:04;;;;;;;8.20;4.03;;;;;;;14.56;100.00;102107.31;5004466;28;20033;-67
2021/09/21 10:05:31;;;;;;;7.60;3.60;;;;;;;14.58;100.00;102101.53;5002179;28;20125;-66
2021/09/21 10:07:58;;;;;;;9.45;4.30;;;;;;;14.58;100.00;102098.81;5007923;28;20060;-66
2021/09/21 10:10:28;;;;;;;7.97;3.95;;;;;;;14.59;100.00;102092.28;5002810;28;20383;-66
2021/09/21 10:12:55;;;;;;;14.00;4.65;;;;;;;14.62;100.00;102089.66;5007687;28;20041;-66
2021/09/21 10:15:23;;;;;;;8.48;3.65;;;;;;;14.69;100.00;102087.13;5007688;28;20510;-66
2021/09/21 10:17:59;;;;;;;6.22;3.53;;;;;;;14.79;100.00;102091.28;5011128;28;20038;-66
2021/09/21 10:20:35;;;;;;;11.50;3.70;;;;;;;14.89;100.00;102090.75;5008053;28;20046;-66
2021/09/21 10:23:04;;;;;;;7.57;3.40;;;;;;;14.94;100.00;102095.94;5000666;28;20106;-66
2021/09/21 10:25:43;;;;;;;11.15;3.88;;;;;;;14.99;100.00;102095.66;5009164;28;20038;-66
2021/09/21 10:28:17;;;;;;;6.78;3.42;;;;;;;15.00;100.00;102089.88;5009278;28;20430;-66
2021/09/21 10:30:58;;;;;;;6.95;3.20;;;;;;;15.01;100.00;102083.34;5009882;28;20034;-66
2021/09/21 10:33:25;;;;;;;7.80;3.90;;;;;;;15.10;100.00;102083.16;5012031;28;20403;-66
2021/09/21 10:35:52;;;;;;;7.40;3.35;;;;;;;15.19;100.00;102075.63;5012680;28;20309;-66
2021/09/21 10:38:19;;;;;;;7.25;3.63;;;;;;;15.26;100.00;102078.50;5006019;28;20462;-66
2021/09/21 10:40:49;;;;;;;7.43;3.38;;;;;;;15.33;100.00;102078.69;5005602;28;20026;-66
2021/09/21 10:43:21;;;;;;;7.93;3.70;;;;;;;15.34;99.45;102077.56;5006060;28;20046;-66
2021/09/21 10:45:53;;;;;;;6.93;3.50;;;;;;;15.36;99.25;102078.78;5011341;28;20045;-66
2021/09/21 10:48:20;;;;;;;;;;;;;;;15.33;98.86;102075.97;5009359;28;20172;-66
2021/09/21 10:50:52;;;;;;;8.27;3.78;;;;;;;15.39;97.72;102080.78;5011029;28;19920;-66
2021/09/21 10:53:21;;;;;;;5.50;3.15;;;;;;;15.40;97.85;102092.44;4994842;28;20037;-66
2021/09/21 10:56:02;;;;;;;6.70;2.88;;;;;;;15.43;96.96;102099.13;5009482;28;20041;-66
2021/09/21 10:58:28;;;;;;;5.07;2.73;;;;;;;15.50;96.70;102093.84;5010186;28;20029;-66
2021/09/21 11:00:54;;;;;;;9.55;3.55;;;;;;;15.49;97.79;102092.28;5012193;28;20405;-66
2021/09/21 11:03:19;;;;;;;5.00;2.70;;;;;;;15.55;97.73;102091.66;5005381;28;20034;-66
2021/09/21 11:05:45;;;;;;;6.28;3.15;;;;;;;15.54;97.17;102084.66;5007076;28;20494;-66
2021/09/21 11:08:14;;;;;;;4.75;2.80;;;;;;;15.51;96.82;102068.25;5010501;28;20038;-66
2021/09/21 11:10:44;;;;;;;5.53;2.80;;;;;;;15.60;97.17;102077.03;5007284;28;20490;-66
2021/09/21 11:13:15;;;;;;;7.32;2.92;;;;;;;15.66;97.27;102065.53;5004437;28;20502;-66
2021/09/21 11:15:41;;;;;;;6.13;3.20;;;;;;;15.79;96.70;102063.50;5011065;28;20030;-66
2021/09/21 11:18:10;;;;;;;5.47;2.78;;;;;;;15.89;96.76;102052.06;5008287;28;20069;-66
2021/09/21 11:20:56;;;;;;;6.13;2.95;;;;;;;15.96;97.04;102052.22;5010556;28;20116;-66
2021/09/21 11:23:24;;;;;;;5.88;2.97;;;;;;;16.08;96.68;102055.59;5004655;28;20025;-66
2021/09/21 11:25:51;;;;;;;5.78;2.95;;;;;;;16.14;96.64;102058.81;5004497;28;20070;-66
2021/09/21 11:28:17;;;;;;;6.10;2.67;;;;;;;16.23;96.52;102054.72;5008601;28;20471;-66
2021/09/21 11:30:43;;;;;;;5.28;2.60;;;;;;;16.28;96.23;102053.63;5010535;28;20044;-66
2021/09/21 11:33:25;;;;;;;5.90;2.95;;;;;;;16.22;95.25;102050.41;5003051;28;20038;-66